createdAt,value
2018-04-12T00:01:23.378Z,83.90
2018-04-12T00:03:52.199Z,84.60
2018-04-12T00:06:20.254Z,84.60
2018-04-12T00:08:48.286Z,84.60
2018-04-12T00:11:16.367Z,84.90
2018-04-12T00:13:44.375Z,84.60
2018-04-12T00:16:12.399Z,84.50
2018-04-12T00:18:41.158Z,84.50
2018-04-12T00:21:09.946Z,84.50
2018-04-12T00:23:37.959Z,84.50
2018-04-12T00:26:06.738Z,84.40
2018-04-12T00:28:34.758Z,84.90
2018-04-12T00:31:02.743Z,84.60
2018-04-12T00:33:31.522Z,85.00
2018-04-12T00:35:59.523Z,85.00
2018-04-12T00:38:28.290Z,86.10
2018-04-12T00:40:56.290Z,86.00
2018-04-12T00:43:24.274Z,85.70
2018-04-12T00:45:53.050Z,86.00
2018-04-12T00:48:21.053Z,86.40
2018-04-12T00:50:49.054Z,87.20
2018-04-12T00:53:29.547Z,87.00
2018-04-12T00:55:57.563Z,86.90
2018-04-12T00:58:26.452Z,87.40
2018-04-12T01:00:54.470Z,88.30
2018-04-12T01:03:22.488Z,87.80
2018-04-12T01:05:51.234Z,86.20
2018-04-12T01:08:19.250Z,86.10
2018-04-12T01:10:47.270Z,85.80
2018-04-12T01:13:15.259Z,85.20
2018-04-12T01:15:43.274Z,83.40
2018-04-12T01:18:12.267Z,82.60
2018-04-12T01:20:40.284Z,80.90
2018-04-12T01:23:08.314Z,80.00
2018-04-12T01:25:36.315Z,78.80
2018-04-12T01:28:04.329Z,77.80
2018-04-12T01:30:33.088Z,77.20
2018-04-12T01:33:13.064Z,77.20
2018-04-12T01:35:41.055Z,76.60
2018-04-12T01:38:09.078Z,75.30
2018-04-12T01:40:37.103Z,74.40
2018-04-12T01:43:05.099Z,74.20
2018-04-12T01:45:33.108Z,74.20
2018-04-12T01:48:01.102Z,73.90
2018-04-12T01:50:29.887Z,73.30
2018-04-12T01:52:57.894Z,73.10
2018-04-12T01:55:26.683Z,72.20
2018-04-12T01:57:54.719Z,72.10
2018-04-12T02:00:22.718Z,72.20
2018-04-12T02:02:50.740Z,72.40
2018-04-12T02:05:19.519Z,71.40
2018-04-12T02:07:47.526Z,71.40
2018-04-12T02:10:16.304Z,71.40
2018-04-12T02:12:44.311Z,71.40
2018-04-12T02:15:13.091Z,70.80
2018-04-12T02:17:41.078Z,70.70
2018-04-12T02:20:09.098Z,70.20
2018-04-12T02:22:37.111Z,70.40
2018-04-12T02:25:05.119Z,70.40
2018-04-12T02:27:33.157Z,70.30
2018-04-12T02:30:01.167Z,70.30
2018-04-12T02:32:29.178Z,69.80
2018-04-12T02:34:57.169Z,69.70
2018-04-12T02:37:25.175Z,69.90
2018-04-12T02:39:53.190Z,69.70
2018-04-12T02:42:21.174Z,69.30
2018-04-12T02:44:49.198Z,69.30
2018-04-12T02:47:17.259Z,69.70
2018-04-12T02:49:45.267Z,69.30
2018-04-12T02:52:13.296Z,68.50
2018-04-12T02:54:41.311Z,68.90
2018-04-12T02:57:09.303Z,67.30
2018-04-12T02:59:37.306Z,67.00
2018-04-12T03:02:06.086Z,66.20
2018-04-12T03:04:34.094Z,66.20
2018-04-12T03:07:02.083Z,65.20
2018-04-12T03:09:30.090Z,65.20
2018-04-12T03:11:58.102Z,65.20
2018-04-12T03:14:26.083Z,65.20
2018-04-12T03:16:54.094Z,65.20
2018-04-12T03:19:23.598Z,65.20
2018-04-12T03:21:51.607Z,65.20
2018-04-12T03:24:20.370Z,64.40
2018-04-12T03:26:48.386Z,64.50
2018-04-12T03:29:17.158Z,64.20
2018-04-12T03:31:45.149Z,64.10
2018-04-12T03:34:13.169Z,64.50
2018-04-12T03:36:41.168Z,64.40
2018-04-12T03:39:09.223Z,65.10
2018-04-12T03:41:38.008Z,62.50
2018-04-12T03:44:06.000Z,63.40
2018-04-12T03:46:34.785Z,62.70
2018-04-12T03:49:04.345Z,62.80
2018-04-12T03:51:33.055Z,62.70
2018-04-12T03:54:01.062Z,62.70
2018-04-12T03:56:29.055Z,62.60
2018-04-12T03:58:57.063Z,62.80
2018-04-12T04:01:25.826Z,62.70
2018-04-12T04:03:53.854Z,62.70
2018-04-12T04:06:21.840Z,63.20
2018-04-12T04:08:50.598Z,64.30
2018-04-12T04:11:18.599Z,63.60
2018-04-12T04:13:46.596Z,63.60
2018-04-12T04:16:26.503Z,64.20
2018-04-12T04:19:06.456Z,64.10
2018-04-12T04:21:34.450Z,64.70
2018-04-12T04:24:02.463Z,64.60
2018-04-12T04:26:30.463Z,64.60
2018-04-12T04:28:58.462Z,64.60
2018-04-12T04:31:27.219Z,64.60
2018-04-12T04:33:55.227Z,64.50
2018-04-12T04:36:23.210Z,64.60
2018-04-12T04:38:51.222Z,64.20
2018-04-12T04:41:19.213Z,63.80
2018-04-12T04:43:47.223Z,63.80
2018-04-12T04:46:15.215Z,63.30
2018-04-12T04:48:43.214Z,63.50
2018-04-12T04:51:11.231Z,62.80
2018-04-12T04:53:39.222Z,63.10
2018-04-12T04:56:07.233Z,62.80
2018-04-12T04:58:35.214Z,63.40
2018-04-12T05:01:03.235Z,63.70
2018-04-12T05:03:31.247Z,63.20
2018-04-12T05:05:59.243Z,63.10
2018-04-12T05:08:27.258Z,62.70
2018-04-12T05:10:55.252Z,62.70
2018-04-12T05:13:23.255Z,62.20
2018-04-12T05:15:52.088Z,62.30
2018-04-12T05:18:20.087Z,62.20
2018-04-12T05:20:48.094Z,61.70
2018-04-12T05:23:16.101Z,62.30
2018-04-12T05:25:44.117Z,62.20
2018-04-12T05:28:12.136Z,62.20
2018-04-12T05:30:40.131Z,61.80
2018-04-12T05:33:08.186Z,62.10
2018-04-12T05:35:36.911Z,62.70
2018-04-12T05:38:04.915Z,62.60
2018-04-12T05:40:32.932Z,63.00
2018-04-12T05:43:00.927Z,61.60
2018-04-12T05:45:28.943Z,61.70
2018-04-12T05:47:56.934Z,61.50
2018-04-12T05:50:24.982Z,60.60
2018-04-12T05:52:52.996Z,61.90
2018-04-12T05:55:20.994Z,61.70
2018-04-12T05:57:48.991Z,61.50
2018-04-12T06:00:17.762Z,61.60
2018-04-12T06:02:45.771Z,61.40
2018-04-12T06:05:14.535Z,60.90
2018-04-12T06:07:42.548Z,60.80
2018-04-12T06:10:10.556Z,60.60
2018-04-12T06:12:39.328Z,60.60
2018-04-12T06:15:08.102Z,60.60
2018-04-12T06:17:36.095Z,60.60
2018-04-12T06:20:05.611Z,61.50
2018-04-12T06:22:33.617Z,61.50
2018-04-12T06:25:02.383Z,59.70
2018-04-12T06:27:30.387Z,59.60
2018-04-12T06:29:58.391Z,60.40
2018-04-12T06:32:27.181Z,60.10
2018-04-12T06:34:55.179Z,60.00
2018-04-12T06:37:23.947Z,60.30
2018-04-12T06:39:51.996Z,60.20
2018-04-12T06:42:19.983Z,60.40
2018-04-12T06:44:47.986Z,58.80
2018-04-12T06:47:16.003Z,60.00
2018-04-12T06:49:44.783Z,60.30
2018-04-12T06:52:12.778Z,60.30
2018-04-12T06:54:41.559Z,59.50
2018-04-12T06:57:10.347Z,58.30
2018-04-12T06:59:38.414Z,57.60
2018-04-12T07:02:06.427Z,57.70
2018-04-12T07:04:34.418Z,57.70
2018-04-12T07:07:02.414Z,57.80
2018-04-12T07:09:31.195Z,56.20
2018-04-12T07:11:59.194Z,56.20
2018-04-12T07:14:27.976Z,56.70
2018-04-12T07:16:55.982Z,56.60
2018-04-12T07:19:23.963Z,55.90
2018-04-12T07:21:52.734Z,55.10
2018-04-12T07:24:20.745Z,55.10
2018-04-12T07:26:48.743Z,55.20
2018-04-12T07:29:17.527Z,53.30
2018-04-12T07:31:46.289Z,52.40
2018-04-12T07:34:14.347Z,52.50
2018-04-12T07:36:42.375Z,50.30
2018-04-12T07:39:10.371Z,50.40
2018-04-12T07:41:38.391Z,50.50
2018-04-12T07:44:06.371Z,50.30
2018-04-12T07:46:34.383Z,50.80
2018-04-12T07:49:02.397Z,48.50
2018-04-12T07:51:31.917Z,48.10
2018-04-12T07:53:59.931Z,48.00
2018-04-12T07:56:28.678Z,47.00
2018-04-12T07:58:56.708Z,47.00
2018-04-12T08:01:25.472Z,45.20
2018-04-12T08:03:53.487Z,45.80
2018-04-12T08:06:21.499Z,45.80
2018-04-12T08:08:49.547Z,44.00
2018-04-12T08:11:18.327Z,44.60
2018-04-12T08:13:46.330Z,44.50
2018-04-12T08:16:15.156Z,42.60
2018-04-12T08:18:43.139Z,42.60
2018-04-12T08:21:11.164Z,45.40
2018-04-12T08:23:39.227Z,42.70
2018-04-12T08:26:07.941Z,43.80
2018-04-12T08:28:35.965Z,43.70
2018-04-12T08:31:04.730Z,43.80
2018-04-12T08:33:32.747Z,43.00
2018-04-12T08:36:01.512Z,42.20
2018-04-12T08:38:29.517Z,42.00
2018-04-12T08:40:57.543Z,43.40
2018-04-12T08:43:26.562Z,43.60
2018-04-12T08:45:54.642Z,42.50
2018-04-12T08:48:22.584Z,43.60
2018-04-12T08:50:50.582Z,42.70
2018-04-12T08:53:18.618Z,41.90
2018-04-12T08:55:46.646Z,42.80
2018-04-12T08:58:14.631Z,40.60
2018-04-12T09:00:43.406Z,39.10
2018-04-12T09:03:11.410Z,39.00
2018-04-12T09:05:39.424Z,38.50
2018-04-12T09:08:07.446Z,37.60
2018-04-12T09:10:35.462Z,39.40
2018-04-12T09:13:03.463Z,38.40
2018-04-12T09:15:31.488Z,36.90
2018-04-12T09:17:59.569Z,36.50
2018-04-12T09:20:28.295Z,37.30
2018-04-12T09:22:57.072Z,36.00
2018-04-12T09:25:25.079Z,35.80
2018-04-12T09:27:53.859Z,35.80
2018-04-12T09:30:23.391Z,35.50
2018-04-12T09:32:52.155Z,34.10
2018-04-12T09:35:20.162Z,33.90
2018-04-12T09:37:48.186Z,37.40
2018-04-12T09:40:16.192Z,33.80
2018-04-12T09:42:44.206Z,32.90
2018-04-12T09:45:12.210Z,32.40
2018-04-12T09:47:40.995Z,31.20
2018-04-12T09:50:09.032Z,31.10
2018-04-12T09:52:37.024Z,30.60
2018-04-12T09:55:05.043Z,29.80
2018-04-12T09:57:33.838Z,30.10
2018-04-12T10:00:01.935Z,30.10
2018-04-12T10:02:29.879Z,28.60
2018-04-12T10:04:59.817Z,29.40
2018-04-12T10:07:47.671Z,28.70
2018-04-12T10:10:24.434Z,28.00
2018-04-12T10:12:52.468Z,28.20
2018-04-12T10:15:20.479Z,28.70
2018-04-12T10:17:48.503Z,29.40
2018-04-12T10:20:16.520Z,27.40
2018-04-12T10:22:44.517Z,27.30
2018-04-12T10:25:12.522Z,27.10
2018-04-12T10:27:40.529Z,27.90
2018-04-12T10:30:08.581Z,28.40
2018-04-12T10:32:36.610Z,26.80
2018-04-12T10:35:04.603Z,25.90
2018-04-12T10:37:32.623Z,25.70
2018-04-12T10:40:00.627Z,26.50
2018-04-12T10:42:28.648Z,26.00
2018-04-12T10:44:56.658Z,26.60
2018-04-12T10:47:24.677Z,27.10
2018-04-12T10:49:52.699Z,26.80
2018-04-12T10:52:20.686Z,27.40
2018-04-12T10:54:50.203Z,27.40
2018-04-12T10:57:18.205Z,27.50
2018-04-12T10:59:46.983Z,27.00
2018-04-12T11:02:14.985Z,26.90
2018-04-12T11:04:42.987Z,26.00
2018-04-12T11:07:11.840Z,27.30
2018-04-12T11:09:39.830Z,27.30
2018-04-12T11:12:07.949Z,27.90
2018-04-12T11:14:37.766Z,29.20
2018-04-12T11:17:06.567Z,27.30
2018-04-12T11:19:35.356Z,26.30
2018-04-12T11:22:03.359Z,26.20
2018-04-12T11:24:32.130Z,26.10
2018-04-12T11:27:00.126Z,26.20
2018-04-12T11:29:28.142Z,25.50
2018-04-12T11:31:56.159Z,25.30
2018-04-12T11:34:24.182Z,25.70
2018-04-12T11:36:52.175Z,26.50
2018-04-12T11:39:20.934Z,25.40
2018-04-12T11:41:48.953Z,25.40
2018-04-12T11:44:17.745Z,25.00
2018-04-12T11:46:45.770Z,24.90
2018-04-12T11:49:14.517Z,25.80
2018-04-12T11:51:42.514Z,25.70
2018-04-12T11:54:11.300Z,25.50
2018-04-12T11:56:39.336Z,25.40
2018-04-12T11:59:08.072Z,26.10
2018-04-12T12:01:36.109Z,26.00
2018-04-12T12:04:04.875Z,24.70
2018-04-12T12:06:32.887Z,24.70
2018-04-12T12:09:00.893Z,26.80
2018-04-12T12:11:28.895Z,25.60
2018-04-12T12:13:56.907Z,26.00
2018-04-12T12:16:25.013Z,25.80
2018-04-12T12:18:53.791Z,25.70
2018-04-12T12:21:23.295Z,26.20
2018-04-12T12:23:51.361Z,26.40
2018-04-12T12:26:20.089Z,25.70
2018-04-12T12:28:48.130Z,25.70
2018-04-12T12:31:16.095Z,24.20
2018-04-12T12:33:44.142Z,25.00
2018-04-12T12:36:12.119Z,24.70
2018-04-12T12:38:40.905Z,25.10
2018-04-12T12:41:08.977Z,24.50
2018-04-12T12:43:37.746Z,25.20
2018-04-12T12:46:07.218Z,24.50
2018-04-12T12:48:35.218Z,24.50
2018-04-12T12:51:04.003Z,25.30
2018-04-12T12:53:31.983Z,25.30
2018-04-12T12:56:00.082Z,25.20
2018-04-12T12:58:27.999Z,24.80
2018-04-12T13:00:56.943Z,24.80
2018-04-12T13:03:24.955Z,25.00
2018-04-12T13:05:52.947Z,25.50
2018-04-12T13:08:21.739Z,25.10
2018-04-12T13:10:49.748Z,25.10
2018-04-12T13:13:17.752Z,25.80
2018-04-12T13:15:45.771Z,25.20
2018-04-12T13:18:13.777Z,26.70
2018-04-12T13:20:42.567Z,26.90
2018-04-12T13:23:10.586Z,26.80
2018-04-12T13:25:38.590Z,26.00
2018-04-12T13:28:06.608Z,26.60
2018-04-12T13:30:34.606Z,27.20
2018-04-12T13:33:03.430Z,26.70
2018-04-12T13:35:31.371Z,26.60
2018-04-12T13:37:59.380Z,27.80
2018-04-12T13:40:28.179Z,26.20
2018-04-12T13:42:56.934Z,26.20
2018-04-12T13:45:24.975Z,26.10
2018-04-12T13:47:53.736Z,27.40
2018-04-12T13:50:21.734Z,27.80
2018-04-12T13:52:50.499Z,27.80
2018-04-12T13:55:18.577Z,27.30
2018-04-12T13:57:47.313Z,27.00
2018-04-12T14:00:16.084Z,27.30
2018-04-12T14:02:44.106Z,26.70
2018-04-12T14:05:12.874Z,26.40
2018-04-12T14:07:40.972Z,26.40
2018-04-12T14:10:09.017Z,25.80
2018-04-12T14:12:37.037Z,26.70
2018-04-12T14:15:07.190Z,26.00
2018-04-12T14:17:35.216Z,26.00
2018-04-12T14:20:03.228Z,27.20
2018-04-12T14:22:31.223Z,27.50
2018-04-12T14:24:59.230Z,25.90
2018-04-12T14:27:27.992Z,25.70
2018-04-12T14:29:56.002Z,25.70
2018-04-12T14:32:24.768Z,27.20
2018-04-12T14:34:52.774Z,27.10
2018-04-12T14:37:20.823Z,25.60
2018-04-12T14:39:48.818Z,25.80
2018-04-12T14:42:16.820Z,25.60
2018-04-12T14:44:44.824Z,25.60
2018-04-12T14:47:13.588Z,25.70
2018-04-12T14:49:41.600Z,25.60
2018-04-12T14:52:09.620Z,25.30
2018-04-12T14:54:37.619Z,27.00
2018-04-12T14:57:05.640Z,28.40
2018-04-12T14:59:33.644Z,27.30
2018-04-12T15:02:02.450Z,27.20
2018-04-12T15:04:30.692Z,27.20
2018-04-12T15:06:58.709Z,27.20
2018-04-12T15:09:26.729Z,26.60
2018-04-12T15:11:54.954Z,27.90
2018-04-12T15:14:22.944Z,27.60
2018-04-12T15:16:50.942Z,27.20
2018-04-12T15:19:18.952Z,27.10
2018-04-12T15:21:47.744Z,28.00
2018-04-12T15:24:15.746Z,28.00
2018-04-12T15:26:44.527Z,28.80
2018-04-12T15:29:13.348Z,29.40
2018-04-12T15:31:42.128Z,30.30
2018-04-12T15:34:10.139Z,30.20
2018-04-12T15:36:38.150Z,30.00
2018-04-12T15:39:06.950Z,30.00
2018-04-12T15:41:34.989Z,30.20
2018-04-12T15:44:02.995Z,29.60
2018-04-12T15:46:30.995Z,29.80
2018-04-12T15:48:59.019Z,30.00
2018-04-12T15:51:28.522Z,30.50
2018-04-12T15:53:56.559Z,30.40
2018-04-12T15:56:24.575Z,30.00
2018-04-12T15:58:52.597Z,30.40
2018-04-12T16:01:20.647Z,30.30
2018-04-12T16:03:48.642Z,30.50
2018-04-12T16:06:18.179Z,30.00
2018-04-12T16:08:46.266Z,30.00
2018-04-12T16:11:15.049Z,28.90
2018-04-12T16:13:43.080Z,28.80
2018-04-12T16:16:11.079Z,29.50
2018-04-12T16:18:39.177Z,29.80
2018-04-12T16:21:07.264Z,30.00
2018-04-12T16:23:35.395Z,30.30
2018-04-12T16:26:04.184Z,29.70
2018-04-12T16:28:32.219Z,29.70
2018-04-12T16:31:00.961Z,30.70
2018-04-12T16:33:28.974Z,30.70
2018-04-12T16:35:57.000Z,30.00
2018-04-12T16:38:25.028Z,30.00
2018-04-12T16:40:53.836Z,29.90
2018-04-12T16:43:22.603Z,30.00
2018-04-12T16:45:50.647Z,30.00
2018-04-12T16:48:18.667Z,30.00
2018-04-12T16:50:46.678Z,30.00
2018-04-12T16:53:14.683Z,30.00
2018-04-12T16:55:42.687Z,30.10
2018-04-12T16:58:10.712Z,31.20
2018-04-12T17:00:38.773Z,31.40
2018-04-12T17:03:06.751Z,31.30
2018-04-12T17:05:34.771Z,31.30
2018-04-12T17:08:03.548Z,32.70
2018-04-12T17:10:31.579Z,32.60
2018-04-12T17:12:59.595Z,32.30
2018-04-12T17:15:27.599Z,32.40
2018-04-12T17:17:55.623Z,31.00
2018-04-12T17:20:24.392Z,31.00
2018-04-12T17:22:52.392Z,30.90
2018-04-12T17:25:21.183Z,32.20
2018-04-12T17:27:50.687Z,32.50
2018-04-12T17:30:19.489Z,33.20
2018-04-12T17:32:47.496Z,33.30
2018-04-12T17:35:16.283Z,33.60
2018-04-12T17:37:44.387Z,33.60
2018-04-12T17:40:13.167Z,34.70
2018-04-12T17:42:41.200Z,34.70
2018-04-12T17:45:09.196Z,34.70
2018-04-12T17:47:37.251Z,34.80
2018-04-12T17:50:05.256Z,35.90
2018-04-12T17:52:33.294Z,36.50
2018-04-12T17:55:01.293Z,37.10
2018-04-12T17:57:30.075Z,37.80
2018-04-12T17:59:58.563Z,37.80
2018-04-12T18:02:26.593Z,38.30
2018-04-12T18:04:54.595Z,38.70
2018-04-12T18:07:22.582Z,39.10
2018-04-12T18:09:50.599Z,39.70
2018-04-12T18:12:18.614Z,39.80
2018-04-12T18:14:46.659Z,39.40
2018-04-12T18:17:14.663Z,40.40
2018-04-12T18:19:43.428Z,40.90
2018-04-12T18:22:11.488Z,40.70
2018-04-12T18:24:40.367Z,41.30
2018-04-12T18:27:08.421Z,41.20
2018-04-12T18:29:36.488Z,40.90
2018-04-12T18:32:04.462Z,40.30
2018-04-12T18:34:32.483Z,40.70
2018-04-12T18:37:01.271Z,40.40
2018-04-12T18:39:29.259Z,40.30
2018-04-12T18:41:58.043Z,41.40
2018-04-12T18:44:26.052Z,41.30
2018-04-12T18:46:54.835Z,41.50
2018-04-12T18:49:22.859Z,41.40
2018-04-12T18:51:50.859Z,42.00
2018-04-12T18:54:18.880Z,42.00
2018-04-12T18:56:46.906Z,42.60
2018-04-12T18:59:14.978Z,42.20
2018-04-12T19:01:43.011Z,42.50
2018-04-12T19:04:11.002Z,42.50
2018-04-12T19:06:39.032Z,42.40
2018-04-12T19:09:07.096Z,42.50
2018-04-12T19:11:35.091Z,42.70
2018-04-12T19:14:03.859Z,43.40
2018-04-12T19:16:31.871Z,43.40
2018-04-12T19:18:59.878Z,43.30
2018-04-12T19:21:27.877Z,43.50
2018-04-12T19:23:55.906Z,43.50
2018-04-12T19:26:23.927Z,43.50
2018-04-12T19:28:51.926Z,43.40
2018-04-12T19:31:19.950Z,43.40
2018-04-12T19:33:47.939Z,43.50
2018-04-12T19:36:15.951Z,44.00
2018-04-12T19:38:43.952Z,44.10
2018-04-12T19:41:11.967Z,43.80
2018-04-12T19:43:39.959Z,44.20
2018-04-12T19:46:07.983Z,44.10
2018-04-12T19:48:35.975Z,44.30
2018-04-12T19:51:04.023Z,44.60
2018-04-12T19:53:32.811Z,45.20
2018-04-12T19:56:02.311Z,45.00
2018-04-12T19:58:30.339Z,45.00
2018-04-12T20:00:59.099Z,45.70
2018-04-12T20:03:27.108Z,45.70
2018-04-12T20:05:55.906Z,45.90
2018-04-12T20:08:24.746Z,47.50
2018-04-12T20:10:52.784Z,46.80
2018-04-12T20:13:20.759Z,46.80
2018-04-12T20:15:48.775Z,46.70
2018-04-12T20:18:16.780Z,47.30
2018-04-12T20:20:44.795Z,47.20
2018-04-12T20:23:12.822Z,47.20
2018-04-12T20:25:40.799Z,47.70
2018-04-12T20:28:09.570Z,48.70
2018-04-12T20:30:37.563Z,48.60
2018-04-12T20:33:05.573Z,48.80
2018-04-12T20:35:33.623Z,49.00
2018-04-12T20:38:01.599Z,49.30
2018-04-12T20:40:29.616Z,49.60
2018-04-12T20:42:58.370Z,49.60
2018-04-12T20:45:26.379Z,49.60
2018-04-12T20:47:54.396Z,49.60
2018-04-12T20:50:22.411Z,49.60
2018-04-12T20:52:50.411Z,49.60
2018-04-12T20:55:18.407Z,49.60
2018-04-12T20:57:46.418Z,49.60
2018-04-12T21:00:15.178Z,50.20
2018-04-12T21:02:43.187Z,50.20
2018-04-12T21:05:11.969Z,50.70
2018-04-12T21:07:39.962Z,50.60
2018-04-12T21:10:07.983Z,51.00
2018-04-12T21:12:36.755Z,51.60
2018-04-12T21:15:05.535Z,51.70
2018-04-12T21:17:33.548Z,51.60
2018-04-12T21:20:02.319Z,52.60
2018-04-12T21:22:30.314Z,52.40
2018-04-12T21:24:59.095Z,53.50
2018-04-12T21:27:27.092Z,53.20
2018-04-12T21:29:55.859Z,53.40
2018-04-12T21:32:23.873Z,53.50
2018-04-12T21:34:51.887Z,53.90
2018-04-12T21:37:20.691Z,54.40
2018-04-12T21:39:49.442Z,55.10
2018-04-12T21:42:17.443Z,55.00
2018-04-12T21:44:45.467Z,54.60
2018-04-12T21:47:13.455Z,54.90
2018-04-12T21:49:41.474Z,55.30
2018-04-12T21:52:09.458Z,55.10
2018-04-12T21:54:37.472Z,55.40
2018-04-12T21:57:06.484Z,56.50
2018-04-12T21:59:35.241Z,56.70
2018-04-12T22:02:03.249Z,56.60
2018-04-12T22:04:31.243Z,57.00
2018-04-12T22:07:00.030Z,56.90
2018-04-12T22:09:28.040Z,56.80
2018-04-12T22:11:56.034Z,56.80
2018-04-12T22:14:24.043Z,56.80
2018-04-12T22:16:52.055Z,56.70
2018-04-12T22:19:20.063Z,57.70
2018-04-12T22:21:48.835Z,58.00
2018-04-12T22:24:16.833Z,57.90
2018-04-12T22:26:44.847Z,58.00
2018-04-12T22:29:12.851Z,58.10
2018-04-12T22:31:40.863Z,58.10
2018-04-12T22:34:08.876Z,57.90
2018-04-12T22:36:37.659Z,57.90
2018-04-12T22:39:07.183Z,58.50
2018-04-12T22:41:35.179Z,57.90
2018-04-12T22:44:03.964Z,59.80
2018-04-12T22:46:31.991Z,59.80
2018-04-12T22:48:59.979Z,61.10
2018-04-12T22:51:27.979Z,60.60
2018-04-12T22:53:55.978Z,60.80
2018-04-12T22:56:23.979Z,60.60
2018-04-12T22:58:52.759Z,61.00
2018-04-12T23:01:20.872Z,60.00
2018-04-12T23:03:49.655Z,60.20
2018-04-12T23:06:19.155Z,60.50
2018-04-12T23:08:47.165Z,60.50
2018-04-12T23:11:15.259Z,60.70
2018-04-12T23:13:43.226Z,61.70
2018-04-12T23:16:11.246Z,61.80
2018-04-12T23:18:40.007Z,61.40
2018-04-12T23:21:08.043Z,61.30
2018-04-12T23:23:36.049Z,60.90
2018-04-12T23:26:04.043Z,60.80
2018-04-12T23:28:32.059Z,61.00
2018-04-12T23:31:00.823Z,61.80
2018-04-12T23:33:28.827Z,61.80
2018-04-12T23:35:56.831Z,61.90
2018-04-12T23:38:26.050Z,62.00
2018-04-12T23:40:54.818Z,62.70
2018-04-12T23:43:22.814Z,62.70
2018-04-12T23:45:51.585Z,63.40
2018-04-12T23:48:19.599Z,63.40
2018-04-12T23:50:47.591Z,63.70
2018-04-12T23:53:16.370Z,65.10
2018-04-12T23:55:44.356Z,65.10
2018-04-12T23:58:12.367Z,65.20
